Ana Sayfa
METAR-TAF:

METAR-TAF

Havaalanları :

Dyersburg, Tennessee, Amerika Birleşik Devletleri

Enlem: 36-00N, Boylam: 089-24W, yükseklik: 103 m

Güncel hava durumu gözlemi

Rapor saat 22:56 UTC de 23 dakika önce yapıldı.
Rüzgar güneydan 10 kt ve 16 kt'a kadar ani rüzgarlar, güney ve batı/güneybatı arasında değişken
Sıcaklık 30°C
Nem 49%
Basınç 1010 hPa
Görüş mesafesi: 16.1 km
5500 ft yükseklikte az bulutlu

METAR: KDYR 212256Z AUTO 19010G16KT 170V240 10SM FEW055 30/18 A2983 RMK AO2 SLP105 T03000183

Saat: 18:19 (23:19 UTC)


TAF: eksik

4.000'den fazla havaalanı için hava durumu gözlemleri ve tahminleri (METAR ve TAF raporları).

Kullanılabilir istasyonlar harita üzerinde sarı ve kırmızı noktalarla gösterilir.

İstasyonun adını görmek için fareyi noktanın üzerinde gezdirin.

Sonrasında hava gözlem ve tahminlerini görmek için tıklayın.

Haritayı değiştirmek için: yaklaştırmak için siyah artı işaretli yeşil düğmeye ve uzaklaştırmak için de eksi işaretli düğmeye hızla tıklayın; bitişik haritalar için yeşil okları kullanın.


METAR-TAF: